Time;durP1;ratioP1;P1;durP2;ratioP2;P2;SDS_P1;SDS_P2;PMS_P1;PMS_P2;Temp;Humidity;BMP_temperature;BMP_pressure;BME280_temperature;BME280_humidity;BME280_pressure;Samples;Min_cycle;Max_cycle;Signal;HPM_P1;HPM_P2
2024/02/07 00:03:39;;;;;;;5.28;0.68;;;7.50;99.90;;;;;;8446104;28;20039;-75
2024/02/07 00:07:44;;;;;;;2.58;0.68;;;7.50;99.90;;;;;;8435271;28;20051;-75
2024/02/07 00:11:47;;;;;;;5.07;1.00;;;7.30;99.90;;;;;;8440708;28;20043;-75
2024/02/07 00:15:48;;;;;;;4.57;0.93;;;7.30;99.90;;;;;;8440863;28;20088;-75
2024/02/07 00:19:50;;;;;;;5.10;1.13;;;7.30;99.90;;;;;;8447444;28;20113;-75
2024/02/07 00:23:52;;;;;;;4.65;1.27;;;7.30;99.90;;;;;;8452649;28;20067;-75
2024/02/07 00:27:54;;;;;;;3.95;0.90;;;7.20;99.90;;;;;;8434061;28;20101;-75
2024/02/07 00:31:56;;;;;;;3.75;0.70;;;7.10;99.90;;;;;;8452020;28;20044;-75
2024/02/07 00:35:58;;;;;;;2.40;0.68;;;7.10;99.90;;;;;;8452365;28;20604;-75
2024/02/07 00:40:00;;;;;;;3.75;0.73;;;7.10;99.90;;;;;;8437632;28;20040;-75
2024/02/07 00:44:01;;;;;;;4.57;0.70;;;7.10;99.90;;;;;;8430748;28;20035;-75
2024/02/07 00:48:44;;;;;;;2.63;0.88;;;7.10;99.90;;;;;;8452286;28;20047;-75
2024/02/07 00:52:46;;;;;;;2.85;0.80;;;7.10;99.90;;;;;;8446942;28;20054;-75
2024/02/07 00:57:07;;;;;;;3.13;0.57;;;7.00;99.90;;;;;;8437759;28;20043;-75
2024/02/07 01:01:09;;;;;;;3.28;0.70;;;7.00;99.90;;;;;;8383608;28;20048;-75
2024/02/07 01:05:11;;;;;;;2.95;0.95;;;6.90;99.90;;;;;;8383256;28;20072;-75
2024/02/07 01:09:14;;;;;;;2.58;0.90;;;6.90;99.90;;;;;;8382667;28;20044;-75
2024/02/07 01:13:16;;;;;;;3.47;1.00;;;6.90;99.90;;;;;;8384321;28;20480;-75
2024/02/07 01:17:18;;;;;;;6.05;0.68;;;6.90;99.90;;;;;;8383437;28;20128;-75
2024/02/07 01:21:20;;;;;;;3.60;1.00;;;7.00;99.90;;;;;;8386683;28;20181;-75
2024/02/07 01:25:25;;;;;;;5.32;1.00;;;6.90;99.90;;;;;;8378725;28;20048;-75
2024/02/07 01:29:27;;;;;;;7.38;1.10;;;6.80;99.90;;;;;;8384450;28;20543;-75
2024/02/07 01:33:35;;;;;;;3.83;0.80;;;6.70;99.90;;;;;;8392388;28;20049;-75
2024/02/07 01:37:41;;;;;;;4.53;0.88;;;6.60;99.90;;;;;;8392405;28;20097;-75
2024/02/07 01:41:57;;;;;;;2.65;1.10;;;6.60;99.90;;;;;;8383676;28;20040;-75
2024/02/07 01:46:00;;;;;;;5.78;0.95;;;6.50;99.90;;;;;;8379717;28;20424;-75
2024/02/07 01:55:27;;;;;;;3.80;0.90;;;6.30;99.90;;;;;;8391453;28;20529;-75
2024/02/07 01:59:30;;;;;;;4.35;1.00;;;6.30;99.90;;;;;;8386758;28;20057;-74
2024/02/07 02:03:33;;;;;;;5.80;0.82;;;6.30;99.90;;;;;;8382534;28;20485;-75
2024/02/07 02:07:35;;;;;;;3.47;1.10;;;6.30;99.90;;;;;;8392524;28;20139;-75
2024/02/07 02:11:40;;;;;;;4.93;1.10;;;6.30;99.90;;;;;;8395817;28;20099;-75
2024/02/07 02:15:45;;;;;;;3.95;1.08;;;6.30;99.90;;;;;;8388564;28;20044;-75
2024/02/07 02:19:50;;;;;;;4.90;1.30;;;6.30;99.90;;;;;;8392813;28;20048;-74
2024/02/07 02:24:24;;;;;;;5.70;1.17;;;6.30;99.90;;;;;;8385668;28;20480;-75
2024/02/07 02:28:41;;;;;;;3.08;0.98;;;6.30;99.90;;;;;;8372541;28;20436;-75
2024/02/07 02:32:43;;;;;;;5.20;0.98;;;6.20;99.90;;;;;;8384411;28;20075;-75
2024/02/07 02:36:45;;;;;;;4.70;1.00;;;6.00;99.90;;;;;;8383342;28;20036;-75
2024/02/07 02:40:48;;;;;;;2.60;1.10;;;5.90;99.90;;;;;;8385863;28;20044;-75
2024/02/07 02:44:50;;;;;;;1.98;0.70;;;5.90;99.90;;;;;;8386286;28;20044;-75
2024/02/07 02:48:52;;;;;;;3.95;1.00;;;5.80;99.90;;;;;;8385227;28;20044;-75
2024/02/07 02:52:58;;;;;;;6.32;1.00;;;5.70;99.90;;;;;;8389016;28;20097;-75
2024/02/07 02:57:02;;;;;;;3.08;0.52;;;5.60;99.90;;;;;;8387616;28;20048;-75
2024/02/07 03:01:04;;;;;;;4.05;0.80;;;5.60;99.90;;;;;;8457741;28;20482;-74
2024/02/07 03:05:26;;;;;;;6.18;1.10;;;5.50;99.90;;;;;;8438474;28;20460;-75
2024/02/07 03:09:30;;;;;;;7.07;1.25;;;5.50;99.90;;;;;;8451722;28;20051;-75
2024/02/07 03:13:34;;;;;;;2.22;1.45;;;5.40;99.90;;;;;;8447268;28;20044;-74
2024/02/07 03:17:36;;;;;;;2.75;0.88;;;5.40;99.90;;;;;;8457941;28;20046;-74
2024/02/07 03:21:39;;;;;;;4.40;0.95;;;5.40;99.90;;;;;;8459489;28;20415;-75
2024/02/07 03:25:41;;;;;;;4.13;0.80;;;5.50;99.90;;;;;;8446939;27;20048;-75
2024/02/07 03:29:43;;;;;;;3.53;0.85;;;5.50;99.90;;;;;;8455789;28;20048;-74
2024/02/07 03:33:44;;;;;;;1.80;0.65;;;5.60;99.90;;;;;;8438080;28;20054;-74
2024/02/07 03:37:46;;;;;;;4.85;0.90;;;5.60;99.90;;;;;;8450720;28;20095;-74
2024/02/07 03:41:49;;;;;;;4.82;1.02;;;5.60;99.90;;;;;;8454059;28;20048;-74
2024/02/07 03:45:52;;;;;;;5.55;0.88;;;5.50;99.90;;;;;;8443170;27;20105;-75
2024/02/07 03:49:56;;;;;;;3.70;0.85;;;5.40;99.90;;;;;;8455980;28;20367;-75
2024/02/07 03:53:59;;;;;;;5.72;0.95;;;5.40;99.90;;;;;;8450171;28;20198;-74
2024/02/07 03:58:01;;;;;;;4.22;1.50;;;5.40;99.90;;;;;;8452223;28;20078;-75
2024/02/07 04:02:03;;;;;;;3.53;0.70;;;5.30;99.90;;;;;;8453453;28;20052;-75
2024/02/07 04:06:53;;;;;;;4.13;0.82;;;5.30;99.90;;;;;;8438053;27;20054;-74
2024/02/07 04:10:55;;;;;;;5.78;1.10;;;5.30;99.90;;;;;;8444515;27;20048;-74
2024/02/07 05:15:55;;;;;;;4.68;0.85;;;5.30;99.90;;;;;;8451879;28;20406;-74
2024/02/07 05:19:58;;;;;;;5.43;1.15;;;5.20;99.90;;;;;;8453151;28;20043;-74
2024/02/07 05:24:00;;;;;;;3.95;0.88;;;5.30;99.90;;;;;;8435870;28;20079;-74
2024/02/07 05:28:02;;;;;;;2.42;0.57;;;5.30;99.90;;;;;;8450553;28;20043;-75
2024/02/07 05:32:04;;;;;;;2.88;1.00;;;5.30;99.90;;;;;;8453418;28;20052;-74
2024/02/07 05:36:08;;;;;;;3.28;0.80;;;5.30;99.90;;;;;;8454098;28;20452;-74
2024/02/07 05:40:10;;;;;;;3.90;0.80;;;5.30;99.90;;;;;;8450814;28;20047;-74
2024/02/07 05:44:12;;;;;;;2.65;0.93;;;5.30;99.90;;;;;;8447763;28;20044;-74
2024/02/07 05:48:14;;;;;;;3.88;0.73;;;5.30;99.90;;;;;;8449340;28;20052;-75
2024/02/07 05:52:17;;;;;;;6.47;0.93;;;5.30;99.90;;;;;;8441343;28;20131;-74
2024/02/07 05:56:35;;;;;;;5.13;1.00;;;5.30;99.90;;;;;;8438734;28;20889;-74
2024/02/07 06:00:38;;;;;;;5.82;0.75;;;5.30;99.90;;;;;;8448769;28;20080;-74
2024/02/07 06:04:40;;;;;;;3.38;0.63;;;5.30;99.90;;;;;;8436240;28;20402;-74
2024/02/07 06:08:42;;;;;;;4.80;0.80;;;5.30;99.90;;;;;;8435658;28;20044;-74
2024/02/07 06:12:44;;;;;;;3.80;0.70;;;5.30;99.90;;;;;;8450062;28;20155;-74
2024/02/07 06:16:46;;;;;;;5.82;0.90;;;5.30;99.90;;;;;;8456566;28;20049;-74
2024/02/07 06:20:48;;;;;;;4.32;0.70;;;5.30;99.90;;;;;;8459630;28;20043;-74
2024/02/07 06:24:50;;;;;;;3.67;0.98;;;5.30;99.90;;;;;;8443439;28;20080;-74
2024/02/07 06:28:52;;;;;;;2.00;0.50;;;5.30;99.90;;;;;;8454554;28;20043;-74
2024/02/07 06:32:54;;;;;;;6.00;0.77;;;5.30;99.90;;;;;;8460160;28;20069;-74
2024/02/07 06:36:56;;;;;;;4.15;0.73;;;5.30;99.90;;;;;;8444788;27;20044;-74
2024/02/07 06:40:58;;;;;;;3.00;0.70;;;5.30;99.90;;;;;;8461196;28;20043;-73
2024/02/07 06:45:00;;;;;;;2.38;0.70;;;5.30;99.90;;;;;;8436024;28;20047;-74
2024/02/07 06:49:02;;;;;;;3.35;0.80;;;5.20;99.90;;;;;;8453986;28;20044;-74
2024/02/07 06:53:04;;;;;;;1.73;0.80;;;5.20;99.90;;;;;;8455613;28;20075;-74
2024/02/07 06:57:06;;;;;;;4.20;0.85;;;5.20;99.90;;;;;;8454543;27;20048;-74
2024/02/07 07:01:08;;;;;;;4.25;1.27;;;5.20;99.90;;;;;;8438349;28;20126;-74
2024/02/07 07:05:10;;;;;;;2.75;0.95;;;5.20;99.90;;;;;;8447302;28;20050;-74
2024/02/07 07:09:12;;;;;;;2.90;0.80;;;5.10;99.90;;;;;;8454075;28;20040;-74
2024/02/07 07:13:14;;;;;;;3.75;1.00;;;5.10;99.90;;;;;;8449259;28;20516;-74
2024/02/07 07:17:17;;;;;;;1.85;0.77;;;5.10;99.90;;;;;;8458197;27;20495;-74
2024/02/07 07:21:22;;;;;;;1.60;0.90;;;5.10;99.90;;;;;;8452991;28;20036;-74
2024/02/07 07:25:24;;;;;;;5.38;1.00;;;5.10;99.90;;;;;;8450727;28;20048;-74
2024/02/07 07:29:25;;;;;;;4.07;1.00;;;5.10;99.90;;;;;;8449550;28;20046;-74
2024/02/07 07:33:27;;;;;;;6.57;1.48;;;5.10;99.90;;;;;;8434278;28;20097;-74
2024/02/07 07:37:29;;;;;;;6.00;1.50;;;5.10;99.90;;;;;;8431580;28;20077;-74
2024/02/07 07:41:31;;;;;;;2.92;1.30;;;5.20;99.90;;;;;;8443633;28;20083;-74
2024/02/07 07:45:47;;;;;;;7.13;1.50;;;5.20;99.90;;;;;;8452496;28;20139;-74
2024/02/07 07:49:49;;;;;;;4.78;1.13;;;5.20;99.90;;;;;;8449363;28;20373;-74
2024/02/07 07:53:51;;;;;;;5.70;1.20;;;5.20;99.90;;;;;;8438258;28;20454;-74
2024/02/07 07:58:05;;;;;;;4.75;1.40;;;5.20;99.90;;;;;;8449203;28;20055;-74
2024/02/07 08:02:26;;;;;;;4.18;1.25;;;5.20;99.90;;;;;;8459338;27;20044;-74
2024/02/07 08:06:28;;;;;;;4.85;1.55;;;5.30;99.90;;;;;;8453086;28;20126;-74
2024/02/07 08:10:30;;;;;;;3.97;1.25;;;5.30;99.90;;;;;;8450993;27;20419;-74
2024/02/07 08:14:32;;;;;;;4.53;1.20;;;5.30;99.90;;;;;;8450974;28;20063;-74
2024/02/07 08:18:34;;;;;;;5.03;1.30;;;5.30;99.90;;;;;;8447750;27;20044;-74
2024/02/07 08:22:36;;;;;;;5.53;1.25;;;5.30;99.90;;;;;;8457753;28;20078;-75
2024/02/07 08:26:38;;;;;;;5.30;1.40;;;5.40;99.90;;;;;;8442305;28;20056;-74
2024/02/07 08:30:40;;;;;;;6.93;1.15;;;5.40;99.90;;;;;;8447571;28;20052;-74
2024/02/07 08:34:42;;;;;;;8.65;1.42;;;5.40;99.90;;;;;;8449417;28;20047;-74
2024/02/07 08:38:44;;;;;;;3.72;1.30;;;5.40;99.90;;;;;;8446063;28;20043;-74
2024/02/07 08:42:46;;;;;;;6.25;2.05;;;5.50;99.90;;;;;;8450359;28;20046;-74
2024/02/07 08:46:48;;;;;;;5.63;1.40;;;5.50;99.90;;;;;;8451538;28;20051;-74
2024/02/07 08:50:50;;;;;;;4.75;1.35;;;5.50;99.90;;;;;;8453646;28;20102;-74
2024/02/07 08:54:51;;;;;;;4.05;1.50;;;5.50;99.90;;;;;;8447912;28;20514;-74
2024/02/07 08:58:53;;;;;;;4.60;1.40;;;5.50;99.90;;;;;;8451617;28;20051;-74
2024/02/07 09:02:55;;;;;;;5.40;1.50;;;5.50;99.90;;;;;;8452158;28;20117;-74
2024/02/07 09:06:57;;;;;;;4.18;1.15;;;5.60;99.90;;;;;;8439605;28;20074;-73
2024/02/07 09:10:58;;;;;;;5.00;1.50;;;5.60;99.90;;;;;;8440314;28;20131;-74
2024/02/07 09:15:01;;;;;;;6.05;1.40;;;5.60;99.90;;;;;;8454219;28;20502;-74
2024/02/07 09:19:02;;;;;;;3.72;1.50;;;5.70;99.90;;;;;;8431045;28;20434;-74
2024/02/07 09:23:04;;;;;;;4.90;1.52;;;5.80;99.90;;;;;;8426196;28;20047;-74
2024/02/07 09:27:06;;;;;;;6.40;1.48;;;5.90;99.90;;;;;;8433362;28;20698;-74
2024/02/07 09:31:09;;;;;;;7.03;2.33;;;5.90;99.90;;;;;;8425455;28;20044;-74
2024/02/07 09:35:10;;;;;;;5.57;1.67;;;6.00;99.90;;;;;;8427409;28;20048;-74
2024/02/07 09:39:13;;;;;;;7.25;1.98;;;6.10;99.90;;;;;;8432414;28;20422;-74
2024/02/07 09:43:15;;;;;;;7.15;1.63;;;6.10;99.90;;;;;;8424638;28;20088;-74
2024/02/07 09:47:19;;;;;;;8.88;2.22;;;6.20;99.90;;;;;;8422822;28;20077;-74
2024/02/07 09:51:23;;;;;;;9.60;2.28;;;6.20;99.90;;;;;;8434331;27;20480;-75
2024/02/07 09:55:25;;;;;;;8.65;2.20;;;6.30;99.90;;;;;;8418700;28;20097;-74
2024/02/07 09:59:28;;;;;;;10.32;1.67;;;6.30;99.90;;;;;;8434948;28;20483;-74
2024/02/07 10:03:34;;;;;;;6.40;2.05;;;6.30;99.90;;;;;;8436947;28;20075;-73
2024/02/07 10:07:37;;;;;;;9.88;2.00;;;6.30;99.90;;;;;;8439668;27;20059;-73
2024/02/07 10:11:40;;;;;;;6.80;1.85;;;6.40;99.90;;;;;;8444374;28;20048;-74
2024/02/07 10:15:43;;;;;;;9.05;1.92;;;6.40;99.90;;;;;;8427111;28;20044;-73
2024/02/07 10:19:45;;;;;;;11.18;2.53;;;6.40;99.90;;;;;;8427099;28;20121;-74
2024/02/07 10:23:47;;;;;;;8.45;1.75;;;6.50;99.90;;;;;;8440975;28;20046;-74
2024/02/07 10:27:49;;;;;;;10.68;2.30;;;6.60;99.90;;;;;;8430215;28;20044;-74
2024/02/07 10:31:52;;;;;;;9.93;2.58;;;6.60;99.90;;;;;;8414183;28;20491;-73
2024/02/07 10:36:01;;;;;;;6.90;1.83;;;6.70;99.90;;;;;;8428625;28;20050;-74
2024/02/07 10:40:31;;;;;;;11.50;1.90;;;6.80;99.90;;;;;;8433206;28;20052;-74
2024/02/07 10:44:32;;;;;;;9.93;1.75;;;6.90;99.90;;;;;;8430368;28;20048;-74
2024/02/07 10:48:34;;;;;;;11.98;1.80;;;7.10;99.90;;;;;;8413610;28;20044;-74
2024/02/07 10:52:40;;;;;;;12.95;1.90;;;7.20;99.90;;;;;;8427188;27;20048;-74
2024/02/07 10:56:46;;;;;;;12.20;1.92;;;7.40;99.90;;;;;;8425717;27;20453;-74
2024/02/07 11:00:51;;;;;;;14.40;1.90;;;7.60;99.90;;;;;;8432581;28;20048;-74
2024/02/07 11:04:53;;;;;;;9.02;1.55;;;7.80;99.90;;;;;;8432749;28;20105;-74
2024/02/07 11:09:20;;;;;;;11.80;1.90;;;7.90;99.90;;;;;;8428066;28;20044;-74
2024/02/07 11:13:22;;;;;;;10.47;1.50;;;8.10;99.90;;;;;;8408066;28;20048;-73
2024/02/07 11:17:25;;;;;;;8.43;1.60;;;8.20;99.90;;;;;;8425928;28;20048;-74
2024/02/07 11:21:32;;;;;;;11.63;1.90;;;8.50;99.90;;;;;;8422664;28;20047;-74
2024/02/07 11:25:35;;;;;;;;;;;8.90;99.90;;;;;;8428654;28;20135;-74
2024/02/07 11:29:37;;;;;;;10.82;1.55;;;9.50;99.90;;;;;;8427841;28;19920;-74
2024/02/07 11:33:43;;;;;;;7.05;1.40;;;10.10;99.90;;;;;;8428689;28;20419;-74
2024/02/07 11:37:49;;;;;;;9.80;1.90;;;10.70;99.90;;;;;;8409338;28;20080;-74
2024/02/07 11:41:50;;;;;;;9.00;1.70;;;11.00;99.90;;;;;;8427780;28;20047;-74
2024/02/07 11:46:05;;;;;;;8.40;1.50;;;11.40;99.90;;;;;;8425188;28;20072;-74
2024/02/07 11:50:08;;;;;;;6.03;1.55;;;11.90;99.90;;;;;;8410783;28;20056;-73
2024/02/07 11:54:10;;;;;;;8.73;1.25;;;12.30;99.90;;;;;;8409757;28;20479;-74
2024/02/07 11:58:16;;;;;;;5.30;1.73;;;12.70;99.90;;;;;;8414714;28;20066;-74
2024/02/07 12:02:18;;;;;;;8.02;1.77;;;13.10;99.90;;;;;;8426548;28;20071;-73
2024/02/07 12:06:20;;;;;;;11.18;2.17;;;13.40;99.90;;;;;;8439046;28;20046;-74
2024/02/07 12:10:59;;;;;;;9.20;1.80;;;13.90;99.90;;;;;;8425307;27;20055;-74
2024/02/07 12:15:02;;;;;;;8.60;1.90;;;14.20;99.90;;;;;;8405928;28;20051;-74
2024/02/07 12:19:05;;;;;;;10.25;1.70;;;14.30;99.90;;;;;;8424613;27;20071;-74
2024/02/07 12:23:07;;;;;;;8.93;1.67;;;14.40;99.90;;;;;;8426289;28;20411;-74
2024/02/07 12:27:13;;;;;;;5.05;1.30;;;14.70;99.90;;;;;;8415990;28;20044;-74
2024/02/07 12:31:14;;;;;;;7.40;1.50;;;14.80;99.90;;;;;;8422130;27;20048;-73
2024/02/07 12:35:17;;;;;;;8.43;1.50;;;14.60;99.90;;;;;;8422395;28;20086;-74
2024/02/07 12:39:22;;;;;;;7.82;1.90;;;14.50;99.90;;;;;;8425969;28;20084;-73
2024/02/07 12:43:26;;;;;;;8.77;1.20;;;14.70;99.90;;;;;;8421368;28;20044;-74
2024/02/07 12:47:28;;;;;;;4.32;0.95;;;14.60;99.90;;;;;;8424498;28;20047;-74
2024/02/07 12:51:30;;;;;;;6.97;1.58;;;14.50;99.90;;;;;;8405033;28;20085;-73
2024/02/07 12:55:32;;;;;;;5.75;1.05;;;14.40;99.90;;;;;;8419031;28;20250;-73
2024/02/07 12:59:36;;;;;;;9.15;1.40;;;14.30;99.90;;;;;;8403778;28;20419;-73
2024/02/07 13:03:37;;;;;;;4.07;1.02;;;14.30;99.90;;;;;;8424822;28;20557;-74
2024/02/07 13:07:39;;;;;;;6.10;1.75;;;14.20;99.90;;;;;;8430713;28;20044;-73
2024/02/07 13:11:41;;;;;;;5.18;1.17;;;13.90;99.90;;;;;;8406590;28;20131;-73
2024/02/07 13:15:43;;;;;;;7.63;1.20;;;13.80;99.90;;;;;;8404748;28;20048;-74
2024/02/07 13:19:45;;;;;;;3.90;1.20;;;13.70;99.90;;;;;;8422844;28;20480;-74
2024/02/07 13:23:46;;;;;;;5.70;1.30;;;13.40;99.90;;;;;;8423293;28;20048;-73
2024/02/07 13:27:48;;;;;;;5.07;1.20;;;13.10;99.90;;;;;;8431531;28;20052;-74
2024/02/07 13:31:50;;;;;;;8.07;1.55;;;12.80;99.90;;;;;;8430618;28;20244;-73
2024/02/07 13:35:55;;;;;;;6.20;1.30;;;12.50;99.90;;;;;;8415287;28;20503;-73
2024/02/07 13:39:57;;;;;;;8.98;1.60;;;12.30;99.90;;;;;;8432021;28;20148;-73
2024/02/07 13:43:59;;;;;;;10.25;1.48;;;12.00;99.90;;;;;;8430282;28;20093;-74
2024/02/07 13:48:01;;;;;;;6.22;1.30;;;11.80;99.90;;;;;;8426405;28;20411;-73
2024/02/07 13:52:03;;;;;;;8.27;1.40;;;11.70;99.90;;;;;;8431934;28;20511;-73
2024/02/07 13:56:06;;;;;;;7.43;1.70;;;11.50;99.90;;;;;;8429294;28;20453;-73
2024/02/07 14:00:20;;;;;;;7.53;1.90;;;11.30;99.90;;;;;;8433051;27;20070;-73
2024/02/07 14:04:21;;;;;;;7.20;1.42;;;11.20;99.90;;;;;;8447379;27;20157;-73
2024/02/07 14:08:23;;;;;;;3.85;1.15;;;11.20;99.90;;;;;;8418775;27;20143;-73
2024/02/07 14:12:26;;;;;;;7.95;1.35;;;11.20;99.90;;;;;;8428642;27;20476;-73
2024/02/07 14:16:28;;;;;;;6.32;1.30;;;11.10;99.90;;;;;;8427154;28;20446;-73
2024/02/07 14:20:30;;;;;;;8.57;1.35;;;11.00;99.90;;;;;;8442359;28;20044;-73
2024/02/07 14:24:33;;;;;;;7.90;1.50;;;11.00;99.90;;;;;;8433227;27;20048;-73
2024/02/07 14:28:34;;;;;;;9.02;1.42;;;10.70;99.90;;;;;;8429442;28;20891;-74
2024/02/07 14:32:36;;;;;;;8.55;1.65;;;10.60;99.90;;;;;;8411901;27;20112;-74
2024/02/07 14:36:38;;;;;;;7.70;1.35;;;10.50;99.90;;;;;;8428207;28;20044;-73
2024/02/07 14:40:41;;;;;;;10.60;1.88;;;10.40;99.90;;;;;;8435048;28;20491;-73
2024/02/07 14:45:20;;;;;;;5.35;1.50;;;10.20;99.90;;;;;;8427327;28;20044;-73
2024/02/07 14:49:23;;;;;;;6.28;1.40;;;10.10;99.90;;;;;;8427454;28;20050;-73
2024/02/07 14:53:25;;;;;;;8.48;1.92;;;10.00;99.90;;;;;;8430540;28;20490;-73
2024/02/07 14:57:26;;;;;;;7.65;1.73;;;9.90;99.90;;;;;;8417321;28;20066;-73
2024/02/07 15:01:28;;;;;;;6.53;1.73;;;9.90;99.90;;;;;;8440330;28;20043;-73
2024/02/07 15:05:30;;;;;;;10.18;1.35;;;9.90;99.90;;;;;;8437997;28;20074;-73
2024/02/07 15:09:32;;;;;;;8.30;1.58;;;9.80;99.90;;;;;;8428150;28;20052;-73
2024/02/07 15:13:34;;;;;;;6.75;1.40;;;9.70;99.90;;;;;;8425701;28;20058;-73
2024/02/07 15:17:38;;;;;;;6.68;1.35;;;9.60;99.90;;;;;;8426935;28;20613;-73
2024/02/07 15:21:40;;;;;;;6.70;1.50;;;9.60;99.90;;;;;;8419635;27;22493;-73
2024/02/07 15:25:49;;;;;;;8.15;1.63;;;9.60;99.90;;;;;;8412374;28;20054;-73
2024/02/07 15:29:50;;;;;;;8.63;1.48;;;9.60;99.90;;;;;;8423832;28;20058;-74
2024/02/07 15:33:52;;;;;;;8.40;1.65;;;9.50;99.90;;;;;;8427708;27;20484;-73
2024/02/07 15:37:54;;;;;;;5.75;1.55;;;9.50;99.90;;;;;;8427776;28;20050;-73
2024/02/07 15:41:56;;;;;;;6.20;1.45;;;9.50;99.90;;;;;;8426010;28;20092;-73
2024/02/07 15:45:58;;;;;;;6.07;1.13;;;9.50;99.90;;;;;;8424982;27;20035;-73
2024/02/07 15:50:01;;;;;;;4.57;1.23;;;9.40;99.90;;;;;;8424398;28;20553;-73
2024/02/07 15:54:03;;;;;;;6.70;1.27;;;9.30;99.90;;;;;;8430289;27;20067;-73
2024/02/07 15:58:05;;;;;;;4.63;1.20;;;9.20;99.90;;;;;;8429230;28;20048;-73
2024/02/07 16:02:06;;;;;;;4.55;1.15;;;9.10;99.90;;;;;;8424755;27;20043;-72
2024/02/07 16:06:08;;;;;;;7.03;1.35;;;9.00;99.90;;;;;;8437823;27;20044;-73
2024/02/07 16:10:11;;;;;;;4.85;0.98;;;9.00;99.90;;;;;;8427818;27;20043;-73
2024/02/07 16:14:13;;;;;;;3.80;1.10;;;8.80;99.90;;;;;;8423562;28;20117;-73
2024/02/07 16:18:15;;;;;;;5.50;1.10;;;8.70;99.90;;;;;;8428162;27;20052;-73
2024/02/07 16:22:17;;;;;;;6.18;1.33;;;8.70;99.90;;;;;;8427333;28;20509;-73
2024/02/07 16:26:19;;;;;;;7.45;1.30;;;8.60;99.90;;;;;;8425056;28;20046;-73
2024/02/07 16:30:20;;;;;;;7.38;1.13;;;8.40;99.90;;;;;;8422447;28;20407;-73
2024/02/07 16:34:27;;;;;;;7.47;1.48;;;8.40;99.90;;;;;;8421890;28;20040;-73
2024/02/07 16:38:29;;;;;;;3.70;1.15;;;8.30;99.90;;;;;;8429495;28;20074;-73
2024/02/07 16:42:30;;;;;;;7.35;1.25;;;8.20;99.90;;;;;;8420403;28;20494;-73
2024/02/07 16:46:32;;;;;;;4.68;1.40;;;8.10;99.90;;;;;;8423052;27;20149;-73
2024/02/07 16:50:34;;;;;;;7.40;1.35;;;8.00;99.90;;;;;;8423731;28;20051;-73
2024/02/07 16:54:36;;;;;;;7.55;1.60;;;7.90;99.90;;;;;;8425632;28;20864;-73
2024/02/07 16:58:38;;;;;;;5.18;1.30;;;7.80;99.90;;;;;;8423906;28;20449;-73
2024/02/07 17:02:41;;;;;;;9.27;1.35;;;7.80;99.90;;;;;;8428683;28;20048;-73
2024/02/07 17:06:43;;;;;;;6.05;1.23;;;7.70;99.90;;;;;;8425571;28;20093;-73
2024/02/07 17:10:45;;;;;;;7.47;1.40;;;7.70;99.90;;;;;;8421298;28;20066;-73
2024/02/07 17:14:47;;;;;;;7.97;1.45;;;7.60;99.90;;;;;;8432308;28;20096;-73
2024/02/07 17:18:49;;;;;;;6.90;1.20;;;7.50;99.90;;;;;;8430855;28;20044;-74
2024/02/07 17:22:51;;;;;;;8.20;1.40;;;7.50;99.90;;;;;;8414227;28;20559;-74
2024/02/07 17:26:53;;;;;;;5.63;1.30;;;7.40;99.90;;;;;;8430071;28;20484;-73
2024/02/07 17:30:54;;;;;;;7.90;1.90;;;7.40;99.90;;;;;;8426483;28;20093;-73
2024/02/07 17:34:58;;;;;;;11.65;2.25;;;7.30;99.90;;;;;;8420019;28;20043;-73
2024/02/07 17:39:00;;;;;;;5.82;1.63;;;7.20;99.90;;;;;;8429275;28;20060;-74
2024/02/07 17:43:02;;;;;;;8.48;1.95;;;7.20;99.90;;;;;;8413554;28;20052;-73
2024/02/07 17:47:04;;;;;;;7.30;2.70;;;7.10;99.90;;;;;;8428005;28;20441;-73
2024/02/07 17:51:06;;;;;;;5.68;1.58;;;7.10;99.90;;;;;;8426545;28;20059;-73
2024/02/07 17:55:09;;;;;;;7.43;1.90;;;7.00;99.90;;;;;;8424203;28;20078;-73
2024/02/07 17:59:10;;;;;;;4.57;1.77;;;7.00;99.90;;;;;;8426885;28;20051;-73
2024/02/07 18:03:12;;;;;;;6.32;2.10;;;6.90;99.90;;;;;;8438451;28;21031;-73
2024/02/07 18:07:14;;;;;;;6.38;2.15;;;6.90;99.90;;;;;;8427550;28;20036;-73
2024/02/07 18:11:20;;;;;;;7.53;2.05;;;6.70;99.90;;;;;;8420709;27;20084;-73
2024/02/07 18:15:22;;;;;;;6.25;2.30;;;6.60;99.90;;;;;;8431742;28;21743;-73
2024/02/07 18:19:24;;;;;;;7.70;2.53;;;6.60;99.90;;;;;;8432767;28;20044;-73
2024/02/07 18:23:26;;;;;;;6.28;2.38;;;6.50;99.90;;;;;;8432369;28;20074;-73
2024/02/07 18:27:28;;;;;;;8.40;2.70;;;6.40;99.90;;;;;;8434702;28;20039;-73
2024/02/07 18:31:30;;;;;;;10.65;3.15;;;6.40;99.90;;;;;;8410268;28;20082;-73
2024/02/07 18:35:32;;;;;;;7.97;3.45;;;6.30;99.90;;;;;;8414321;28;20063;-73
2024/02/07 18:39:34;;;;;;;8.70;3.65;;;6.30;99.90;;;;;;8416512;28;20050;-73
2024/02/07 18:43:36;;;;;;;8.85;2.83;;;6.30;99.90;;;;;;8431875;28;20074;-73
2024/02/07 18:47:38;;;;;;;7.13;2.80;;;6.20;99.90;;;;;;8411844;28;22683;-73
2024/02/07 18:51:40;;;;;;;6.47;2.47;;;6.10;99.90;;;;;;8432911;28;20063;-73
2024/02/07 18:55:41;;;;;;;7.97;2.80;;;6.10;99.90;;;;;;8421278;28;20055;-74
2024/02/07 18:59:43;;;;;;;8.25;3.03;;;6.00;99.90;;;;;;8428411;28;20052;-73
2024/02/07 19:03:45;;;;;;;8.18;2.60;;;6.00;99.90;;;;;;8429544;28;20098;-73
2024/02/07 19:07:47;;;;;;;10.20;2.83;;;5.90;99.90;;;;;;8410574;28;20082;-73
2024/02/07 19:11:55;;;;;;;5.78;2.30;;;5.80;99.90;;;;;;8437249;27;20169;-74
2024/02/07 19:15:57;;;;;;;7.07;2.15;;;5.80;99.90;;;;;;8428174;28;20039;-73
2024/02/07 19:19:59;;;;;;;7.70;2.20;;;5.60;99.90;;;;;;8427142;28;20415;-73
2024/02/07 19:24:01;;;;;;;7.20;2.20;;;5.60;99.90;;;;;;8429111;28;20040;-73
2024/02/07 19:28:05;;;;;;;5.15;2.30;;;5.50;99.90;;;;;;8428082;28;20775;-73
2024/02/07 19:32:10;;;;;;;9.07;2.17;;;5.50;99.90;;;;;;8433135;28;20059;-74
2024/02/07 19:36:12;;;;;;;7.00;2.58;;;5.40;99.90;;;;;;8427429;28;20051;-73
2024/02/07 19:40:14;;;;;;;6.95;2.70;;;5.40;99.90;;;;;;8439463;28;20036;-73
2024/02/07 19:44:17;;;;;;;5.68;2.08;;;5.30;99.90;;;;;;8414341;28;20047;-73
2024/02/07 19:48:18;;;;;;;7.30;2.33;;;5.20;99.90;;;;;;8430324;28;23873;-73
2024/02/07 19:52:21;;;;;;;9.00;2.78;;;5.20;99.90;;;;;;8431063;28;20502;-73
2024/02/07 19:56:22;;;;;;;8.15;2.80;;;5.20;99.90;;;;;;8421911;28;20099;-73
2024/02/07 20:00:24;;;;;;;10.23;3.53;;;5.10;99.90;;;;;;8428838;28;20047;-73
2024/02/07 20:04:26;;;;;;;11.45;4.28;;;5.10;99.90;;;;;;8437248;27;20100;-74
2024/02/07 20:08:28;;;;;;;6.95;4.00;;;5.00;99.90;;;;;;8433841;28;20131;-73
2024/02/07 20:12:30;;;;;;;8.65;4.50;;;4.90;99.90;;;;;;8409882;28;20044;-73
2024/02/07 20:16:31;;;;;;;9.70;3.30;;;4.80;99.90;;;;;;8414658;27;20498;-73
2024/02/07 20:20:34;;;;;;;6.57;3.40;;;4.80;99.90;;;;;;8415080;27;20048;-73
2024/02/07 20:24:37;;;;;;;9.00;4.00;;;4.70;99.90;;;;;;8429703;28;20759;-73
2024/02/07 20:28:40;;;;;;;8.80;5.47;;;4.70;99.90;;;;;;8413360;28;20043;-73
2024/02/07 20:32:42;;;;;;;10.48;4.13;;;4.60;99.90;;;;;;8435721;27;20044;-74
2024/02/07 20:36:44;;;;;;;9.35;4.22;;;4.50;99.90;;;;;;8409558;27;20502;-73
2024/02/07 20:40:46;;;;;;;10.88;3.75;;;4.50;99.90;;;;;;8412247;27;20055;-73
2024/02/07 20:44:48;;;;;;;7.35;3.30;;;4.40;99.90;;;;;;8420789;27;20036;-73
2024/02/07 20:48:50;;;;;;;8.35;3.45;;;4.40;99.90;;;;;;8429854;27;20048;-73
2024/02/07 20:52:54;;;;;;;8.90;3.75;;;4.30;99.90;;;;;;8430385;28;20058;-73
2024/02/07 20:56:57;;;;;;;7.38;3.95;;;4.30;99.90;;;;;;8412932;28;20142;-73
2024/02/07 21:00:59;;;;;;;10.75;4.32;;;4.20;99.90;;;;;;8427630;28;20411;-73
2024/02/07 21:05:01;;;;;;;9.30;4.35;;;4.20;99.90;;;;;;8409029;28;20051;-73
2024/02/07 21:09:06;;;;;;;10.57;4.25;;;4.10;99.90;;;;;;8427278;27;20066;-73
2024/02/07 21:13:10;;;;;;;8.07;3.78;;;4.00;99.90;;;;;;8428897;28;20051;-73
2024/02/07 21:17:11;;;;;;;7.70;4.32;;;4.00;99.90;;;;;;8425046;28;20058;-73
2024/02/07 21:21:17;;;;;;;9.70;4.15;;;4.00;99.90;;;;;;8421700;28;20074;-73
2024/02/07 21:25:19;;;;;;;11.68;4.60;;;3.90;99.90;;;;;;8413445;28;20051;-73
2024/02/07 21:29:22;;;;;;;11.35;4.47;;;3.90;99.90;;;;;;8412916;28;20043;-73
2024/02/07 21:33:24;;;;;;;10.45;3.92;;;3.80;99.90;;;;;;8409549;28;20051;-73
2024/02/07 21:37:26;;;;;;;7.43;3.60;;;3.70;99.90;;;;;;8413208;28;20054;-73
2024/02/07 21:41:28;;;;;;;8.98;4.07;;;3.60;99.90;;;;;;8412654;28;20055;-73
2024/02/07 21:45:29;;;;;;;14.15;4.80;;;3.60;99.90;;;;;;8431225;28;20052;-73
2024/02/07 21:49:31;;;;;;;8.85;3.65;;;3.60;99.90;;;;;;8432256;27;20052;-73
2024/02/07 21:53:33;;;;;;;9.35;3.63;;;3.50;99.90;;;;;;8435345;27;20047;-73
2024/02/07 21:57:35;;;;;;;7.28;3.92;;;3.50;99.90;;;;;;8433916;27;20561;-73
2024/02/07 22:01:39;;;;;;;8.02;3.67;;;3.40;99.90;;;;;;8433206;27;20098;-73
2024/02/07 22:05:41;;;;;;;8.00;3.40;;;3.40;99.90;;;;;;8443475;27;20492;-73
2024/02/07 22:09:43;;;;;;;13.60;3.63;;;3.40;99.90;;;;;;8461150;27;20487;-73
2024/02/07 22:13:45;;;;;;;14.05;3.78;;;3.30;99.90;;;;;;8436876;27;20048;-73
2024/02/07 22:17:47;;;;;;;7.50;3.25;;;3.30;99.90;;;;;;8460988;27;20050;-73
2024/02/07 22:22:04;;;;;;;9.40;3.55;;;3.30;99.90;;;;;;8448449;27;20043;-73
2024/02/07 22:26:06;;;;;;;6.97;3.35;;;3.20;99.90;;;;;;8450885;27;20055;-73
2024/02/07 22:30:08;;;;;;;8.00;3.65;;;3.20;99.90;;;;;;8457417;27;20562;-73